createdAt,value
2018-09-20T00:00:36.854Z,1012.41
2018-09-20T00:01:36.869Z,1012.42
2018-09-20T00:02:36.886Z,1012.41
2018-09-20T00:03:36.919Z,1012.39
2018-09-20T00:04:36.932Z,1012.36
2018-09-20T00:05:36.934Z,1012.38
2018-09-20T00:06:37.000Z,1012.38
2018-09-20T00:07:36.981Z,1012.38
2018-09-20T00:08:36.983Z,1012.39
2018-09-20T00:09:37.001Z,1012.39
2018-09-20T00:10:37.015Z,1012.34
2018-09-20T00:11:37.037Z,1012.34
2018-09-20T00:12:37.060Z,1012.30
2018-09-20T00:13:37.077Z,1012.32
2018-09-20T00:14:37.094Z,1012.30
2018-09-20T00:15:37.093Z,1012.30
2018-09-20T00:16:37.113Z,1012.32
2018-09-20T00:17:37.126Z,1012.30
2018-09-20T00:18:37.142Z,1012.30
2018-09-20T00:19:37.166Z,1012.28
2018-09-20T00:20:37.173Z,1012.26
2018-09-20T00:21:37.189Z,1012.26
2018-09-20T00:22:38.307Z,1012.22
2018-09-20T00:23:37.326Z,1012.24
2018-09-20T00:24:37.236Z,1012.19
2018-09-20T00:25:37.268Z,1012.15
2018-09-20T00:26:37.268Z,1012.18
2018-09-20T00:27:37.284Z,1012.16
2018-09-20T00:28:37.306Z,1012.15
2018-09-20T00:29:37.322Z,1012.15
2018-09-20T00:30:37.333Z,1012.18
2018-09-20T00:31:37.349Z,1012.13
2018-09-20T00:32:37.364Z,1012.10
2018-09-20T00:33:37.380Z,1012.10
2018-09-20T00:34:37.395Z,1012.08
2018-09-20T00:35:37.437Z,1012.11
2018-09-20T00:36:37.426Z,1012.08
2018-09-20T00:37:37.443Z,1012.09
2018-09-20T00:38:37.763Z,1012.07
2018-09-20T00:39:37.474Z,1012.04
2018-09-20T00:40:37.494Z,1012.03
2018-09-20T00:41:37.507Z,1012.03
2018-09-20T00:42:37.521Z,1012.01
2018-09-20T00:43:37.541Z,1011.99
2018-09-20T00:44:37.553Z,1011.96
2018-09-20T00:45:38.817Z,1011.92
2018-09-20T00:46:37.804Z,1011.91
2018-09-20T00:47:37.633Z,1011.93
2018-09-20T00:48:37.670Z,1011.94
2018-09-20T00:49:37.634Z,1011.96
2018-09-20T00:50:37.649Z,1011.97
2018-09-20T00:51:37.667Z,1012.00
2018-09-20T00:52:37.683Z,1011.99
2018-09-20T00:53:37.697Z,1011.96
2018-09-20T00:54:37.711Z,1011.96
2018-09-20T00:55:37.727Z,1011.96
2018-09-20T00:56:37.746Z,1011.95
2018-09-20T00:57:37.764Z,1011.97
2018-09-20T00:58:37.779Z,1011.98
2018-09-20T00:59:37.791Z,1011.98
2018-09-20T01:00:37.806Z,1011.95
2018-09-20T01:01:37.826Z,1011.96
2018-09-20T01:02:37.840Z,1011.97
2018-09-20T01:03:37.853Z,1011.96
2018-09-20T01:04:37.883Z,1011.94
2018-09-20T01:05:37.886Z,1011.95
2018-09-20T01:06:37.903Z,1011.97
2018-09-20T01:07:37.939Z,1011.92
2018-09-20T01:08:37.934Z,1011.95
2018-09-20T01:09:38.053Z,1011.94
2018-09-20T01:10:37.965Z,1011.99
2018-09-20T01:11:37.987Z,1011.96
2018-09-20T01:12:37.995Z,1011.98
2018-09-20T01:13:38.012Z,1011.95
2018-09-20T01:14:38.028Z,1012.00
2018-09-20T01:15:38.051Z,1011.94
2018-09-20T01:16:38.060Z,1011.95
2018-09-20T01:17:38.082Z,1011.91
2018-09-20T01:18:38.120Z,1011.91
2018-09-20T01:19:38.181Z,1011.89
2018-09-20T01:20:38.122Z,1011.91
2018-09-20T01:21:38.137Z,1011.89
2018-09-20T01:22:38.156Z,1011.89
2018-09-20T01:23:38.172Z,1011.86
2018-09-20T01:24:38.185Z,1011.89
2018-09-20T01:25:38.408Z,1011.89
2018-09-20T01:27:38.233Z,1011.90
2018-09-20T01:28:38.274Z,1011.88
2018-09-20T01:29:38.264Z,1011.93
2018-09-20T01:31:38.773Z,1011.94
2018-09-20T01:32:38.313Z,1011.91
2018-09-20T01:33:38.325Z,1011.93
2018-09-20T01:34:38.497Z,1011.95
2018-09-20T01:35:38.362Z,1011.98
2018-09-20T01:36:38.374Z,1011.93
2018-09-20T01:37:38.393Z,1011.96
2018-09-20T01:38:38.419Z,1011.93
2018-09-20T01:39:38.440Z,1011.92
2018-09-20T01:40:38.437Z,1011.91
2018-09-20T01:41:38.467Z,1011.89
2018-09-20T01:42:38.472Z,1011.87
2018-09-20T01:43:38.508Z,1011.92
2018-09-20T01:44:38.499Z,1011.91
2018-09-20T01:45:38.524Z,1011.90
2018-09-20T01:46:38.532Z,1011.94
2018-09-20T01:47:38.853Z,1011.92
2018-09-20T01:48:38.563Z,1011.92
2018-09-20T01:49:38.579Z,1011.90
2018-09-20T01:50:38.597Z,1011.92
2018-09-20T01:51:38.610Z,1011.94
2018-09-20T01:52:38.633Z,1011.95
2018-09-20T01:53:38.642Z,1011.93
2018-09-20T01:54:38.665Z,1011.92
2018-09-20T01:55:38.675Z,1011.93
2018-09-20T01:56:38.689Z,1011.96
2018-09-20T01:57:38.722Z,1011.95
2018-09-20T01:58:38.720Z,1011.92
2018-09-20T01:59:38.749Z,1011.90
2018-09-20T02:00:38.765Z,1011.96
2018-09-20T02:01:38.767Z,1011.90
2018-09-20T02:02:38.782Z,1011.93
2018-09-20T02:03:38.799Z,1011.95
2018-09-20T02:04:38.823Z,1011.98
2018-09-20T02:05:38.830Z,1011.98
2018-09-20T02:06:38.848Z,1011.93
2018-09-20T02:07:38.861Z,1011.95
2018-09-20T02:08:38.877Z,1011.96
2018-09-20T02:09:38.895Z,1011.96
2018-09-20T02:10:38.909Z,1011.95
2018-09-20T02:11:38.929Z,1011.94
2018-09-20T02:12:38.939Z,1011.95
2018-09-20T02:13:38.958Z,1011.98
2018-09-20T02:14:38.970Z,1012.00
2018-09-20T02:15:38.988Z,1012.02
2018-09-20T02:16:39.004Z,1011.99
2018-09-20T02:17:39.396Z,1012.00
2018-09-20T02:18:39.046Z,1011.98
2018-09-20T02:19:39.051Z,1011.99
2018-09-20T02:20:39.066Z,1011.98
2018-09-20T02:21:39.081Z,1012.02
2018-09-20T02:22:39.199Z,1012.01
2018-09-20T02:23:39.263Z,1012.01
2018-09-20T02:24:39.134Z,1012.01
2018-09-20T02:25:39.154Z,1012.01
2018-09-20T02:26:39.159Z,1011.97
2018-09-20T02:27:39.177Z,1012.05
2018-09-20T02:28:39.191Z,1012.00
2018-09-20T02:29:39.207Z,1012.02
2018-09-20T02:30:39.227Z,1012.06
2018-09-20T02:31:39.238Z,1012.01
2018-09-20T02:32:39.256Z,1012.03
2018-09-20T02:33:39.270Z,1012.04
2018-09-20T02:34:39.287Z,1012.03
2018-09-20T02:35:39.301Z,1012.04
2018-09-20T02:36:39.622Z,1012.08
2018-09-20T02:37:39.331Z,1012.07
2018-09-20T02:38:39.360Z,1012.06
2018-09-20T02:39:39.367Z,1012.05
2018-09-20T02:40:39.379Z,1012.07
2018-09-20T02:41:39.395Z,1012.07
2018-09-20T02:42:39.416Z,1012.04
2018-09-20T02:43:39.426Z,1012.10
2018-09-20T02:44:39.449Z,1012.07
2018-09-20T02:45:39.461Z,1012.01
2018-09-20T02:46:39.473Z,1011.98
2018-09-20T02:47:39.491Z,1012.00
2018-09-20T02:48:39.505Z,1012.03
2018-09-20T02:49:39.519Z,1012.00
2018-09-20T02:50:39.878Z,1012.02
2018-09-20T02:51:39.551Z,1012.02
2018-09-20T02:52:39.574Z,1012.01
2018-09-20T02:53:39.581Z,1012.03
2018-09-20T02:54:39.600Z,1011.99
2018-09-20T02:55:39.624Z,1011.98
2018-09-20T02:56:39.673Z,1011.97
2018-09-20T02:57:40.412Z,1011.97
2018-09-20T02:58:39.668Z,1011.90
2018-09-20T02:59:39.700Z,1011.94
2018-09-20T03:00:39.691Z,1011.91
2018-09-20T03:01:39.706Z,1011.91
2018-09-20T03:02:39.721Z,1011.91
2018-09-20T03:03:39.739Z,1011.90
2018-09-20T03:04:39.752Z,1011.90
2018-09-20T03:05:39.768Z,1011.84
2018-09-20T03:06:39.783Z,1011.83
2018-09-20T03:07:39.800Z,1011.85
2018-09-20T03:08:39.814Z,1011.84
2018-09-20T03:09:39.845Z,1011.87
2018-09-20T03:10:39.847Z,1011.86
2018-09-20T03:11:39.876Z,1011.90
2018-09-20T03:12:39.946Z,1011.91
2018-09-20T03:13:39.896Z,1011.86
2018-09-20T03:14:39.908Z,1011.86
2018-09-20T03:15:39.924Z,1011.86
2018-09-20T03:16:39.943Z,1011.88
2018-09-20T03:17:39.965Z,1011.90
2018-09-20T03:18:40.031Z,1011.92
2018-09-20T03:19:39.987Z,1011.92
2018-09-20T03:20:40.003Z,1011.88
2018-09-20T03:21:40.383Z,1011.90
2018-09-20T03:22:40.034Z,1011.94
2018-09-20T03:23:40.048Z,1011.91
2018-09-20T03:24:40.064Z,1011.91
2018-09-20T03:25:40.082Z,1011.92
2018-09-20T03:26:40.115Z,1011.91
2018-09-20T03:27:40.120Z,1011.94
2018-09-20T03:28:40.126Z,1011.91
2018-09-20T03:29:40.142Z,1011.92
2018-09-20T03:30:40.256Z,1011.91
2018-09-20T03:31:40.186Z,1011.91
2018-09-20T03:32:40.195Z,1011.91
2018-09-20T03:33:40.203Z,1011.90
2018-09-20T03:34:40.221Z,1011.85
2018-09-20T03:35:40.240Z,1011.93
2018-09-20T03:36:40.253Z,1011.93
2018-09-20T03:37:40.879Z,1011.97
2018-09-20T03:38:40.281Z,1011.95
2018-09-20T03:39:40.297Z,1011.95
2018-09-20T03:40:40.314Z,1011.94
2018-09-20T03:41:40.328Z,1011.93
2018-09-20T03:42:40.345Z,1011.96
2018-09-20T03:43:40.368Z,1011.96
2018-09-20T03:44:40.400Z,1011.96
2018-09-20T03:45:40.394Z,1011.98
2018-09-20T03:46:40.415Z,1011.95
2018-09-20T03:47:40.421Z,1011.95
2018-09-20T03:48:40.439Z,1011.94
2018-09-20T03:49:40.453Z,1011.96
2018-09-20T03:50:40.469Z,1011.97
2018-09-20T03:51:40.486Z,1011.94
2018-09-20T03:52:40.501Z,1012.01
2018-09-20T03:53:41.017Z,1011.99
2018-09-20T03:54:40.533Z,1012.00
2018-09-20T03:55:40.597Z,1011.99
2018-09-20T03:56:40.810Z,1011.98
2018-09-20T03:57:40.582Z,1011.97
2018-09-20T03:58:40.592Z,1011.96
2018-09-20T03:59:41.169Z,1012.00
2018-09-20T04:00:40.638Z,1011.99
2018-09-20T04:01:40.639Z,1011.99
2018-09-20T04:02:40.653Z,1012.02
2018-09-20T04:03:40.670Z,1012.00
2018-09-20T04:04:40.702Z,1012.01
2018-09-20T04:05:40.708Z,1012.02
2018-09-20T04:06:40.715Z,1012.01
2018-09-20T04:07:41.036Z,1012.04
2018-09-20T04:08:40.747Z,1011.99
2018-09-20T04:09:40.808Z,1012.01
2018-09-20T04:10:40.779Z,1012.02
2018-09-20T04:11:40.793Z,1012.01
2018-09-20T04:12:40.815Z,1012.05
2018-09-20T04:13:40.824Z,1012.03
2018-09-20T04:14:40.843Z,1012.00
2018-09-20T04:15:40.882Z,1012.07
2018-09-20T04:16:40.871Z,1012.02
2018-09-20T04:17:40.893Z,1012.04
2018-09-20T04:18:40.902Z,1012.01
2018-09-20T04:19:40.928Z,1012.01
2018-09-20T04:20:41.238Z,1012.00
2018-09-20T04:21:40.952Z,1012.02
2018-09-20T04:22:40.965Z,1012.01
2018-09-20T04:23:40.980Z,1011.98
2018-09-20T04:24:40.995Z,1012.00
2018-09-20T04:25:41.014Z,1012.01
2018-09-20T04:26:41.031Z,1011.98
2018-09-20T04:27:41.040Z,1012.01
2018-09-20T04:28:41.058Z,1011.98
2018-09-20T04:29:41.072Z,1011.98
2018-09-20T04:30:41.088Z,1011.97
2018-09-20T04:31:41.120Z,1011.92
2018-09-20T04:32:41.116Z,1011.89
2018-09-20T04:33:44.249Z,1011.90
2018-09-20T04:34:45.790Z,1011.94
2018-09-20T04:35:44.751Z,1011.95
2018-09-20T04:36:41.180Z,1011.96
2018-09-20T04:37:41.229Z,1011.95
2018-09-20T04:38:41.246Z,1011.96
2018-09-20T04:39:41.226Z,1011.99
2018-09-20T04:40:41.259Z,1011.98
2018-09-20T04:41:41.320Z,1012.02
2018-09-20T04:42:41.272Z,1012.00
2018-09-20T04:43:41.292Z,1012.01
2018-09-20T04:44:41.308Z,1012.02
2018-09-20T04:45:41.319Z,1012.03
2018-09-20T04:46:41.515Z,1011.98
2018-09-20T04:47:41.360Z,1011.99
2018-09-20T04:48:41.375Z,1012.03
2018-09-20T04:50:41.417Z,1012.01
2018-09-20T04:51:41.419Z,1012.02
2018-09-20T04:52:41.432Z,1012.02
2018-09-20T04:53:41.456Z,1012.02
2018-09-20T04:54:41.466Z,1012.00
2018-09-20T04:55:41.475Z,1012.06
2018-09-20T04:56:41.492Z,1012.06
2018-09-20T04:57:41.507Z,1012.05
2018-09-20T04:58:41.525Z,1012.02
2018-09-20T04:59:41.537Z,1012.01
2018-09-20T05:00:41.634Z,1012.01
2018-09-20T05:01:41.848Z,1012.02
2018-09-20T05:02:41.583Z,1012.01
2018-09-20T05:03:41.599Z,1012.02
2018-09-20T05:04:41.612Z,1012.04
2018-09-20T05:05:41.630Z,1012.03
2018-09-20T05:06:41.769Z,1012.04
2018-09-20T05:07:42.810Z,1012.05
2018-09-20T05:08:43.749Z,1012.03
2018-09-20T05:09:41.828Z,1012.04
2018-09-20T05:10:42.026Z,1011.97
2018-09-20T05:11:41.724Z,1011.98
2018-09-20T05:12:41.751Z,1011.99
2018-09-20T05:13:41.752Z,1011.97
2018-09-20T05:14:41.772Z,1011.94
2018-09-20T05:15:41.840Z,1011.96
2018-09-20T05:16:41.815Z,1011.98
2018-09-20T05:17:41.835Z,1011.95
2018-09-20T05:18:41.918Z,1011.98
2018-09-20T05:19:41.855Z,1011.99
2018-09-20T05:20:41.865Z,1011.97
2018-09-20T05:22:41.996Z,1011.97
2018-09-20T05:23:41.909Z,1011.98
2018-09-20T05:24:41.926Z,1011.96
2018-09-20T05:25:41.957Z,1011.97
2018-09-20T05:26:41.953Z,1011.97
2018-09-20T05:27:42.977Z,1011.98
2018-09-20T05:28:41.996Z,1011.94
2018-09-20T05:30:42.104Z,1011.96
2018-09-20T05:31:42.043Z,1011.92
2018-09-20T05:32:42.053Z,1011.96
2018-09-20T05:33:42.068Z,1011.95
2018-09-20T05:34:42.101Z,1011.94
2018-09-20T05:35:42.115Z,1011.92
2018-09-20T05:36:42.104Z,1011.95
2018-09-20T05:37:42.274Z,1011.97
2018-09-20T05:38:42.142Z,1011.99
2018-09-20T05:39:42.156Z,1011.97
2018-09-20T05:40:42.167Z,1011.97
2018-09-20T05:41:42.189Z,1011.96
2018-09-20T05:42:42.883Z,1011.96
2018-09-20T05:43:42.618Z,1011.94
2018-09-20T05:44:42.247Z,1011.95
2018-09-20T05:45:42.559Z,1011.99
2018-09-20T05:46:42.264Z,1011.98
2018-09-20T05:47:42.279Z,1012.00
2018-09-20T05:48:42.307Z,1011.99
2018-09-20T05:49:42.341Z,1011.98
2018-09-20T05:50:42.334Z,1012.01
2018-09-20T05:51:42.402Z,1011.99
2018-09-20T05:52:42.696Z,1011.99
2018-09-20T05:53:42.748Z,1012.01
2018-09-20T05:54:42.385Z,1011.95
2018-09-20T05:55:42.570Z,1011.98
2018-09-20T05:56:42.412Z,1011.94
2018-09-20T05:57:42.828Z,1011.97
2018-09-20T05:58:42.445Z,1011.96
2018-09-20T05:59:42.469Z,1011.95
2018-09-20T06:00:42.475Z,1011.95
2018-09-20T06:01:42.493Z,1011.97
2018-09-20T06:02:42.506Z,1011.97
2018-09-20T06:03:42.521Z,1011.99
2018-09-20T06:04:42.537Z,1011.97
2018-09-20T06:05:42.569Z,1011.94
2018-09-20T06:06:42.569Z,1011.91
2018-09-20T06:07:42.585Z,1011.95
2018-09-20T06:08:42.599Z,1011.94
2018-09-20T06:09:42.615Z,1011.95
2018-09-20T06:10:42.703Z,1011.92
2018-09-20T06:11:42.647Z,1011.95
2018-09-20T06:12:42.668Z,1011.93
2018-09-20T06:13:42.683Z,1011.94
2018-09-20T06:14:42.695Z,1011.94
2018-09-20T06:15:42.708Z,1011.96
2018-09-20T06:16:42.722Z,1011.95
2018-09-20T06:17:42.739Z,1011.97
2018-09-20T06:18:42.911Z,1011.98
2018-09-20T06:19:42.815Z,1011.97
2018-09-20T06:20:42.785Z,1011.98
2018-09-20T06:21:42.860Z,1012.01
2018-09-20T06:23:42.841Z,1011.96
2018-09-20T06:24:42.863Z,1011.98
2018-09-20T06:25:42.943Z,1011.96
2018-09-20T06:26:43.468Z,1011.93
2018-09-20T06:27:42.999Z,1011.95
2018-09-20T06:28:43.368Z,1011.95
2018-09-20T06:29:42.955Z,1011.97
2018-09-20T06:30:42.955Z,1011.94
2018-09-20T06:31:42.961Z,1011.96
2018-09-20T06:32:42.971Z,1011.94
2018-09-20T06:33:43.006Z,1011.94
2018-09-20T06:34:43.043Z,1011.93
2018-09-20T06:35:43.025Z,1011.97
2018-09-20T06:36:43.055Z,1011.96
2018-09-20T06:37:43.201Z,1011.98
2018-09-20T06:38:43.816Z,1012.00
2018-09-20T06:39:43.099Z,1012.01
2018-09-20T06:40:43.201Z,1012.03
2018-09-20T06:41:43.113Z,1012.10
2018-09-20T06:42:43.136Z,1012.08
2018-09-20T06:43:43.158Z,1012.09
2018-09-20T06:44:43.160Z,1012.09
2018-09-20T06:45:43.181Z,1012.05
2018-09-20T06:46:43.192Z,1012.06
2018-09-20T06:47:43.207Z,1012.06
2018-09-20T06:48:43.221Z,1012.04
2018-09-20T06:49:43.265Z,1012.01
2018-09-20T06:50:43.258Z,1012.05
2018-09-20T06:51:43.269Z,1012.00
2018-09-20T06:52:43.281Z,1012.03
2018-09-20T06:53:43.298Z,1011.99
2018-09-20T06:54:43.316Z,1012.00
2018-09-20T06:55:43.342Z,1012.03
2018-09-20T06:56:43.423Z,1012.02
2018-09-20T06:57:43.359Z,1012.01
2018-09-20T06:58:43.389Z,1011.98
2018-09-20T06:59:43.421Z,1011.99
2018-09-20T07:00:43.411Z,1012.01
2018-09-20T07:01:43.425Z,1012.01
2018-09-20T07:02:43.471Z,1012.00
2018-09-20T07:03:43.460Z,1012.02
2018-09-20T07:04:43.478Z,1011.98
2018-09-20T07:05:43.493Z,1011.97
2018-09-20T07:06:43.501Z,1011.96
2018-09-20T07:07:43.526Z,1011.97
2018-09-20T07:08:43.543Z,1011.99
2018-09-20T07:09:43.552Z,1011.97
2018-09-20T07:10:43.566Z,1011.96
2018-09-20T07:11:43.582Z,1011.99
2018-09-20T07:12:43.600Z,1011.98
2018-09-20T07:13:43.679Z,1011.97
2018-09-20T07:14:43.624Z,1011.96
2018-09-20T07:15:43.642Z,1011.98
2018-09-20T07:16:43.656Z,1011.95
2018-09-20T07:17:43.719Z,1011.93
2018-09-20T07:19:43.710Z,1011.95
2018-09-20T07:20:43.719Z,1011.96
2018-09-20T07:21:44.852Z,1011.92
2018-09-20T07:22:43.825Z,1011.96
2018-09-20T07:23:44.192Z,1011.94
2018-09-20T07:24:44.652Z,1011.93
2018-09-20T07:25:45.003Z,1011.89
2018-09-20T07:26:44.271Z,1011.92
2018-09-20T07:27:43.992Z,1011.92
2018-09-20T07:28:43.862Z,1011.91
2018-09-20T07:29:43.869Z,1011.94
2018-09-20T07:30:44.381Z,1011.92
2018-09-20T07:31:43.905Z,1011.91
2018-09-20T07:32:43.926Z,1011.93
2018-09-20T07:33:44.007Z,1011.95
2018-09-20T07:34:43.972Z,1011.93
2018-09-20T07:35:44.063Z,1011.96
2018-09-20T07:36:43.972Z,1011.98
2018-09-20T07:37:44.068Z,1011.91
2018-09-20T07:38:44.017Z,1012.00
2018-09-20T07:39:44.160Z,1011.96
2018-09-20T07:40:44.057Z,1011.95
2018-09-20T07:41:44.056Z,1011.98
2018-09-20T07:42:44.067Z,1011.96
2018-09-20T07:43:44.092Z,1011.94
2018-09-20T07:44:44.294Z,1011.91
2018-09-20T07:45:44.147Z,1011.91
2018-09-20T07:46:44.131Z,1011.88
2018-09-20T07:47:44.152Z,1011.90
2018-09-20T07:48:44.166Z,1011.95
2018-09-20T07:49:44.179Z,1011.88
2018-09-20T07:50:44.383Z,1011.91
2018-09-20T07:51:44.251Z,1011.90
2018-09-20T07:52:44.229Z,1011.96
2018-09-20T07:53:44.380Z,1011.92
2018-09-20T07:54:44.428Z,1011.91
2018-09-20T07:55:44.524Z,1011.95
2018-09-20T07:56:44.506Z,1011.96
2018-09-20T07:57:44.399Z,1011.98
2018-09-20T07:58:45.499Z,1011.94
2018-09-20T07:59:44.366Z,1011.98
2018-09-20T08:00:44.356Z,1011.93
2018-09-20T08:01:44.855Z,1011.91
2018-09-20T08:02:44.455Z,1011.97
2018-09-20T08:03:44.443Z,1011.90
2018-09-20T08:04:44.512Z,1011.93
2018-09-20T08:05:44.488Z,1011.96
2018-09-20T08:06:44.459Z,1011.94
2018-09-20T08:07:44.814Z,1011.96
2018-09-20T08:08:44.496Z,1011.98
2018-09-20T08:09:45.655Z,1011.93
2018-09-20T08:10:44.642Z,1011.95
2018-09-20T08:11:44.543Z,1011.94
2018-09-20T08:12:44.566Z,1011.99
2018-09-20T08:13:44.577Z,1011.93
2018-09-20T08:15:44.618Z,1011.99
2018-09-20T08:16:45.144Z,1011.96
2018-09-20T08:17:45.175Z,1011.97
2018-09-20T08:18:45.053Z,1011.99
2018-09-20T08:19:44.851Z,1011.97
2018-09-20T08:21:44.789Z,1012.03
2018-09-20T08:22:45.249Z,1012.04
2018-09-20T08:23:44.739Z,1012.03
2018-09-20T08:24:45.391Z,1012.03
2018-09-20T08:25:44.809Z,1012.04
2018-09-20T08:26:44.907Z,1012.02
2018-09-20T08:27:44.876Z,1011.99
2018-09-20T08:28:44.832Z,1012.00
2018-09-20T08:29:44.856Z,1011.95
2018-09-20T08:30:44.867Z,1011.98
2018-09-20T08:31:45.026Z,1011.99
2018-09-20T08:32:44.903Z,1012.02
2018-09-20T08:33:44.941Z,1012.05
2018-09-20T08:34:44.926Z,1011.98
2018-09-20T08:35:44.941Z,1012.04
2018-09-20T08:36:44.949Z,1012.09
2018-09-20T08:37:45.582Z,1012.04
2018-09-20T08:38:46.429Z,1012.06
2018-09-20T08:39:45.111Z,1012.08
2018-09-20T08:40:45.035Z,1012.07
2018-09-20T08:41:45.052Z,1012.03
2018-09-20T08:42:45.060Z,1012.02
2018-09-20T08:43:45.141Z,1012.00
2018-09-20T08:44:45.168Z,1012.03
2018-09-20T08:45:45.469Z,1012.02
2018-09-20T08:46:45.158Z,1011.99
2018-09-20T08:47:45.568Z,1012.02
2018-09-20T08:48:45.153Z,1012.03
2018-09-20T08:49:45.403Z,1012.01
2018-09-20T08:50:45.467Z,1012.02
2018-09-20T08:51:45.353Z,1012.02
2018-09-20T08:52:45.217Z,1011.98
2018-09-20T08:53:45.251Z,1012.02
2018-09-20T08:54:45.260Z,1011.97
2018-09-20T08:55:45.542Z,1012.03
2018-09-20T08:57:45.457Z,1012.02
2018-09-20T08:59:45.575Z,1011.96
2018-09-20T09:01:45.396Z,1011.98
2018-09-20T09:02:45.434Z,1011.97
2018-09-20T09:03:45.518Z,1011.93
2018-09-20T09:04:45.590Z,1011.94
2018-09-20T09:05:45.442Z,1011.96
2018-09-20T09:06:46.707Z,1011.99
2018-09-20T09:07:46.565Z,1011.93
2018-09-20T09:08:45.484Z,1011.88
2018-09-20T09:09:46.343Z,1011.89
2018-09-20T09:10:45.846Z,1011.83
2018-09-20T09:11:45.537Z,1011.88
2018-09-20T09:12:45.628Z,1011.82
2018-09-20T09:13:45.922Z,1011.82
2018-09-20T09:14:45.603Z,1011.77
2018-09-20T09:15:45.933Z,1011.81
2018-09-20T09:16:46.221Z,1011.74
2018-09-20T09:17:45.634Z,1011.72
2018-09-20T09:18:45.661Z,1011.71
2018-09-20T09:19:45.675Z,1011.67
2018-09-20T09:20:45.703Z,1011.67
2018-09-20T09:21:46.201Z,1011.71
2018-09-20T09:22:45.716Z,1011.68
2018-09-20T09:23:45.743Z,1011.66
2018-09-20T09:24:46.677Z,1011.63
2018-09-20T09:25:45.895Z,1011.61
2018-09-20T09:26:45.902Z,1011.60
2018-09-20T09:27:45.884Z,1011.58
2018-09-20T09:28:45.900Z,1011.57
2018-09-20T09:29:45.842Z,1011.56
2018-09-20T09:30:45.862Z,1011.57
2018-09-20T09:31:46.314Z,1011.55
2018-09-20T09:32:45.940Z,1011.53
2018-09-20T09:33:45.930Z,1011.59
2018-09-20T09:34:45.963Z,1011.48
2018-09-20T09:35:46.037Z,1011.53
2018-09-20T09:36:45.955Z,1011.52
2018-09-20T09:37:45.983Z,1011.53
2018-09-20T09:38:46.289Z,1011.57
2018-09-20T09:39:46.146Z,1011.53
2018-09-20T09:40:47.049Z,1011.50
2018-09-20T09:41:46.537Z,1011.48
2018-09-20T09:42:46.053Z,1011.55
2018-09-20T09:43:49.492Z,1011.54
2018-09-20T09:44:46.124Z,1011.52
2018-09-20T09:45:46.106Z,1011.52
2018-09-20T09:46:46.142Z,1011.49
2018-09-20T09:47:46.202Z,1011.55
2018-09-20T09:48:46.188Z,1011.52
2018-09-20T09:49:46.561Z,1011.51
2018-09-20T09:50:46.210Z,1011.50
2018-09-20T09:51:46.272Z,1011.48
2018-09-20T09:52:46.223Z,1011.55
2018-09-20T09:53:46.305Z,1011.46
2018-09-20T09:54:46.300Z,1011.51
2018-09-20T09:55:46.343Z,1011.49
2018-09-20T09:56:46.601Z,1011.51
2018-09-20T09:57:46.401Z,1011.48
2018-09-20T09:58:47.764Z,1011.52
2018-09-20T09:59:46.985Z,1011.48
2018-09-20T10:00:47.676Z,1011.44
2018-09-20T10:01:46.397Z,1011.37
2018-09-20T10:03:47.060Z,1011.46
2018-09-20T10:04:46.661Z,1011.39
2018-09-20T10:05:46.907Z,1011.40
2018-09-20T10:06:46.487Z,1011.39
2018-09-20T10:07:46.847Z,1011.41
2018-09-20T10:08:46.596Z,1011.31
2018-09-20T10:09:46.964Z,1011.33
2018-09-20T10:10:46.549Z,1011.30
2018-09-20T10:11:46.567Z,1011.32
2018-09-20T10:12:46.778Z,1011.24
2018-09-20T10:13:47.686Z,1011.25
2018-09-20T10:14:47.390Z,1011.31
2018-09-20T10:15:47.125Z,1011.30
2018-09-20T10:16:46.678Z,1011.29
2018-09-20T10:17:46.665Z,1011.30
2018-09-20T10:18:46.689Z,1011.27
2018-09-20T10:19:46.768Z,1011.33
2018-09-20T10:20:46.862Z,1011.28
2018-09-20T10:21:46.866Z,1011.27
2018-09-20T10:22:46.744Z,1011.28
2018-09-20T10:23:46.767Z,1011.24
2018-09-20T10:24:46.984Z,1011.25
2018-09-20T10:25:46.795Z,1011.29
2018-09-20T10:26:46.815Z,1011.20
2018-09-20T10:27:46.926Z,1011.17
2018-09-20T10:28:47.387Z,1011.16
2018-09-20T10:29:46.927Z,1011.24
2018-09-20T10:30:47.049Z,1011.20
2018-09-20T10:31:47.566Z,1011.17
2018-09-20T10:33:47.224Z,1011.13
2018-09-20T10:34:47.001Z,1011.17
2018-09-20T10:35:47.669Z,1011.17
2018-09-20T10:36:47.162Z,1011.15
2018-09-20T10:37:47.358Z,1011.16
2018-09-20T10:38:47.106Z,1011.12
2018-09-20T10:39:47.043Z,1011.07
2018-09-20T10:40:47.078Z,1011.10
2018-09-20T10:41:47.137Z,1011.04
2018-09-20T10:42:47.135Z,1011.09
2018-09-20T10:44:47.505Z,1011.09
2018-09-20T10:45:47.151Z,1011.14
2018-09-20T10:46:47.202Z,1011.01
2018-09-20T10:47:48.084Z,1011.08
2018-09-20T10:48:47.303Z,1011.07
2018-09-20T10:49:48.046Z,1011.10
2018-09-20T10:50:47.690Z,1011.12
2018-09-20T10:51:47.334Z,1011.16
2018-09-20T10:52:47.467Z,1011.07
2018-09-20T10:53:47.300Z,1011.04
2018-09-20T10:54:47.349Z,1011.04
2018-09-20T10:55:47.366Z,1011.00
2018-09-20T10:57:47.375Z,1011.00
2018-09-20T10:58:47.557Z,1011.00
2018-09-20T10:59:47.444Z,1011.00
2018-09-20T11:01:47.441Z,1010.98
2018-09-20T11:02:47.473Z,1010.99
2018-09-20T11:03:47.487Z,1010.97
2018-09-20T11:04:47.537Z,1010.97
2018-09-20T11:06:48.298Z,1010.95
2018-09-20T11:07:47.898Z,1010.94
2018-09-20T11:08:47.620Z,1010.94
2018-09-20T11:09:47.586Z,1010.91
2018-09-20T11:10:47.668Z,1010.92
2018-09-20T11:11:47.624Z,1010.94
2018-09-20T11:12:47.642Z,1010.94
2018-09-20T11:13:47.664Z,1010.93
2018-09-20T11:14:47.686Z,1011.00
2018-09-20T11:15:47.699Z,1010.97
2018-09-20T11:16:47.714Z,1010.93
2018-09-20T11:17:47.738Z,1010.88
2018-09-20T11:18:47.756Z,1010.96
2018-09-20T11:19:47.770Z,1010.90
2018-09-20T11:20:47.786Z,1010.84
2018-09-20T11:21:47.812Z,1010.84
2018-09-20T11:22:47.826Z,1010.90
2018-09-20T11:23:47.846Z,1010.93
2018-09-20T11:24:47.863Z,1010.91
2018-09-20T11:25:47.906Z,1010.88
2018-09-20T11:26:47.900Z,1010.87
2018-09-20T11:27:47.915Z,1010.87
2018-09-20T11:28:47.935Z,1010.88
2018-09-20T11:29:47.953Z,1010.85
2018-09-20T11:30:47.972Z,1010.85
2018-09-20T11:31:48.096Z,1010.95
2018-09-20T11:32:48.015Z,1010.90
2018-09-20T11:33:48.024Z,1010.89
2018-09-20T11:34:48.047Z,1010.80
2018-09-20T11:35:48.057Z,1010.89
2018-09-20T11:36:48.090Z,1010.87
2018-09-20T11:37:48.115Z,1010.94
2018-09-20T11:38:48.112Z,1010.98
2018-09-20T11:39:48.130Z,1010.97
2018-09-20T11:40:48.450Z,1011.00
2018-09-20T11:41:48.233Z,1011.00
2018-09-20T11:42:48.181Z,1010.95
2018-09-20T11:43:48.207Z,1010.97
2018-09-20T11:44:48.219Z,1010.96
2018-09-20T11:45:48.237Z,1011.02
2018-09-20T11:46:48.258Z,1010.91
2018-09-20T11:47:48.276Z,1010.95
2018-09-20T11:48:48.293Z,1010.95
2018-09-20T11:49:48.308Z,1010.97
2018-09-20T11:50:48.331Z,1010.95
2018-09-20T11:51:48.345Z,1010.95
2018-09-20T11:52:48.365Z,1010.94
2018-09-20T11:53:48.382Z,1010.91
2018-09-20T11:54:48.398Z,1010.89
2018-09-20T11:55:48.417Z,1010.87
2018-09-20T11:56:48.738Z,1010.86
2018-09-20T11:57:48.453Z,1010.90
2018-09-20T11:58:48.471Z,1010.87
2018-09-20T11:59:48.490Z,1010.82
2018-09-20T12:00:48.509Z,1010.86
2018-09-20T12:01:48.559Z,1010.89
2018-09-20T12:02:48.549Z,1010.89
2018-09-20T12:03:48.562Z,1010.88
2018-09-20T12:04:48.576Z,1010.84
2018-09-20T12:05:48.601Z,1010.87
2018-09-20T12:06:48.617Z,1010.82
2018-09-20T12:07:48.636Z,1010.86
2018-09-20T12:08:48.650Z,1010.86
2018-09-20T12:09:48.670Z,1010.86
2018-09-20T12:10:48.688Z,1010.78
2018-09-20T12:11:48.705Z,1010.78
2018-09-20T12:12:48.723Z,1010.74
2018-09-20T12:13:48.746Z,1010.72
2018-09-20T12:14:48.765Z,1010.73
2018-09-20T12:15:48.965Z,1010.67
2018-09-20T12:16:48.797Z,1010.59
2018-09-20T12:17:49.209Z,1010.65
2018-09-20T12:18:48.845Z,1010.69
2018-09-20T12:19:48.996Z,1010.64
2018-09-20T12:20:48.897Z,1010.66
2018-09-20T12:21:48.892Z,1010.62
2018-09-20T12:22:48.908Z,1010.57
2018-09-20T12:23:48.935Z,1010.58